createdAt,value
2016-06-05T00:01:19.105Z,1009.92
2016-06-05T00:02:19.139Z,1009.92
2016-06-05T00:03:19.157Z,1009.92
2016-06-05T00:04:19.175Z,1009.98
2016-06-05T00:05:19.209Z,1009.99
2016-06-05T00:06:19.244Z,1009.93
2016-06-05T00:07:19.261Z,1009.91
2016-06-05T00:08:19.279Z,1009.96
2016-06-05T00:09:19.314Z,1009.89
2016-06-05T00:10:19.332Z,1009.92
2016-06-05T00:11:19.366Z,1009.89
2016-06-05T00:12:19.385Z,1009.87
2016-06-05T00:13:19.403Z,1009.89
2016-06-05T00:14:19.437Z,1009.87
2016-06-05T00:15:19.454Z,1009.89
2016-06-05T00:17:19.507Z,1009.82
2016-06-05T00:18:19.541Z,1009.82
2016-06-05T00:19:19.560Z,1009.8
2016-06-05T00:20:19.593Z,1009.82
2016-06-05T00:21:19.612Z,1009.79
2016-06-05T00:22:19.646Z,1009.78
2016-06-05T00:23:19.664Z,1009.76
2016-06-05T00:24:19.698Z,1009.76
2016-06-05T00:25:19.717Z,1009.74
2016-06-05T00:26:19.751Z,1009.73
2016-06-05T00:27:19.768Z,1009.74
2016-06-05T00:28:20.459Z,1009.72
2016-06-05T00:29:19.820Z,1009.73
2016-06-05T00:30:19.855Z,1009.7
2016-06-05T00:31:19.873Z,1009.73
2016-06-05T00:33:19.925Z,1009.74
2016-06-05T00:34:19.944Z,1009.73
2016-06-05T00:35:19.977Z,1009.72
2016-06-05T00:36:19.996Z,1009.71
2016-06-05T00:37:20.030Z,1009.72
2016-06-05T00:38:20.048Z,1009.74
2016-06-05T00:39:20.082Z,1009.75
2016-06-05T00:40:20.100Z,1009.74
2016-06-05T00:41:20.135Z,1009.73
2016-06-05T00:42:20.153Z,1009.73
2016-06-05T00:43:20.171Z,1009.74
2016-06-05T00:44:20.204Z,1009.77
2016-06-05T00:45:20.224Z,1009.79
2016-06-05T00:46:20.273Z,1009.83
2016-06-05T00:48:20.309Z,1009.81
2016-06-05T00:49:20.327Z,1009.84
2016-06-05T00:50:20.362Z,1009.89
2016-06-05T00:51:20.380Z,1009.88
2016-06-05T00:52:20.414Z,1009.87
2016-06-05T00:53:20.432Z,1009.81
2016-06-05T00:54:20.466Z,1009.84
2016-06-05T00:55:20.484Z,1009.8
2016-06-05T00:56:20.518Z,1009.8
2016-06-05T00:57:20.537Z,1009.81
2016-06-05T00:58:20.571Z,1009.87
2016-06-05T00:59:20.589Z,1009.89
2016-06-05T01:00:20.623Z,1009.89
2016-06-05T01:01:20.642Z,1009.9
2016-06-05T01:02:20.659Z,1009.91
2016-06-05T01:03:20.693Z,1009.9
2016-06-05T01:04:20.712Z,1009.91
2016-06-05T01:05:20.745Z,1009.93
2016-06-05T01:06:20.764Z,1009.94
2016-06-05T01:07:20.783Z,1009.94
2016-06-05T01:08:20.816Z,1009.92
2016-06-05T01:09:20.835Z,1009.86
2016-06-05T01:10:20.869Z,1009.83
2016-06-05T01:11:20.887Z,1009.86
2016-06-05T01:12:20.921Z,1009.89
2016-06-05T01:13:20.955Z,1009.92
2016-06-05T01:14:20.973Z,1009.9
2016-06-05T01:15:20.991Z,1009.88
2016-06-05T01:16:21.025Z,1009.9
2016-06-05T01:17:21.043Z,1009.89
2016-06-05T01:18:21.077Z,1009.9
2016-06-05T01:20:21.115Z,1009.91
2016-06-05T01:21:21.149Z,1009.88
2016-06-05T01:22:21.166Z,1009.89
2016-06-05T01:23:21.185Z,1009.86
2016-06-05T01:24:21.218Z,1009.84
2016-06-05T01:25:21.237Z,1009.85
2016-06-05T01:26:21.271Z,1009.83
2016-06-05T01:27:21.304Z,1009.76
2016-06-05T01:28:21.323Z,1009.81
2016-06-05T01:29:21.342Z,1009.77
2016-06-05T01:30:21.375Z,1009.8
2016-06-05T01:31:21.395Z,1009.78
2016-06-05T01:32:21.412Z,1009.78
2016-06-05T01:33:21.445Z,1009.77
2016-06-05T01:34:21.464Z,1009.79
2016-06-05T01:36:21.517Z,1009.77
2016-06-05T01:37:21.551Z,1009.78
2016-06-05T01:38:21.569Z,1009.77
2016-06-05T01:39:21.602Z,1009.78
2016-06-05T01:40:21.622Z,1009.77
2016-06-05T01:41:21.639Z,1009.76
2016-06-05T01:42:21.674Z,1009.8
2016-06-05T01:43:21.692Z,1009.77
2016-06-05T01:44:21.726Z,1009.81
2016-06-05T01:45:21.744Z,1009.8
2016-06-05T01:46:21.777Z,1009.85
2016-06-05T01:47:21.796Z,1009.88
2016-06-05T01:48:21.815Z,1009.83
2016-06-05T01:49:21.863Z,1009.88
2016-06-05T01:50:21.867Z,1009.84
2016-06-05T01:52:21.919Z,1009.88
2016-06-05T01:53:21.953Z,1009.84
2016-06-05T01:54:21.971Z,1009.88
2016-06-05T01:55:21.990Z,1009.81
2016-06-05T01:56:22.024Z,1009.82
2016-06-05T01:57:22.042Z,1009.84
2016-06-05T01:58:22.075Z,1009.83
2016-06-05T01:59:22.094Z,1009.83
2016-06-05T02:00:22.129Z,1009.81
2016-06-05T02:01:22.146Z,1009.8
2016-06-05T02:02:22.181Z,1009.89
2016-06-05T02:03:22.199Z,1009.88
2016-06-05T02:04:22.217Z,1009.87
2016-06-05T02:05:22.251Z,1009.87
2016-06-05T02:06:22.269Z,1009.86
2016-06-05T02:08:22.322Z,1009.86
2016-06-05T02:09:22.339Z,1009.84
2016-06-05T02:10:22.374Z,1009.87
2016-06-05T02:11:22.392Z,1009.86
2016-06-05T02:12:22.426Z,1009.87
2016-06-05T02:13:22.866Z,1009.85
2016-06-05T02:14:22.463Z,1009.84
2016-06-05T02:15:22.496Z,1009.9
2016-06-05T02:16:22.530Z,1009.87
2016-06-05T02:17:22.549Z,1009.89
2016-06-05T02:18:22.566Z,1009.9
2016-06-05T02:19:22.601Z,1009.9
2016-06-05T02:20:22.619Z,1009.89
2016-06-05T02:21:22.654Z,1009.86
2016-06-05T02:23:22.690Z,1009.85
2016-06-05T02:24:22.723Z,1009.85
2016-06-05T02:25:22.742Z,1009.86
2016-06-05T02:26:22.777Z,1009.85
2016-06-05T02:27:22.795Z,1009.87
2016-06-05T02:28:22.828Z,1009.86
2016-06-05T02:29:22.846Z,1009.84
2016-06-05T02:30:22.865Z,1009.89
2016-06-05T02:31:22.899Z,1009.86
2016-06-05T02:32:22.917Z,1009.87
2016-06-05T02:33:22.936Z,1009.89
2016-06-05T02:34:22.970Z,1009.89
2016-06-05T02:35:22.987Z,1009.93
2016-06-05T02:36:23.022Z,1009.9
2016-06-05T02:37:23.040Z,1009.96
2016-06-05T02:38:23.075Z,1009.92
2016-06-05T02:39:23.092Z,1009.94
2016-06-05T02:40:23.125Z,1009.9
2016-06-05T02:41:23.145Z,1009.96
2016-06-05T02:42:23.460Z,1009.92
2016-06-05T02:43:23.196Z,1009.91
2016-06-05T02:44:23.216Z,1009.94
2016-06-05T02:45:23.233Z,1009.95
2016-06-05T02:46:23.267Z,1009.97
2016-06-05T02:47:23.286Z,1009.96
2016-06-05T02:48:23.320Z,1009.95
2016-06-05T02:49:23.338Z,1009.94
2016-06-05T02:50:23.357Z,1009.95
2016-06-05T02:51:23.391Z,1009.94
2016-06-05T02:52:23.409Z,1009.94
2016-06-05T02:53:23.443Z,1009.93
2016-06-05T02:55:23.480Z,1009.91
2016-06-05T02:56:23.513Z,1009.89
2016-06-05T02:57:23.531Z,1009.95
2016-06-05T02:58:24.004Z,1009.91
2016-06-05T02:59:23.584Z,1009.95
2016-06-05T03:00:23.617Z,1009.93
2016-06-05T03:01:23.636Z,1009.94
2016-06-05T03:02:23.654Z,1009.9
2016-06-05T03:03:23.688Z,1009.97
2016-06-05T03:04:23.706Z,1009.95
2016-06-05T03:05:23.740Z,1009.96
2016-06-05T03:06:23.758Z,1009.98
2016-06-05T03:07:23.777Z,1009.97
2016-06-05T03:08:23.811Z,1009.99
2016-06-05T03:09:23.828Z,1009.98
2016-06-05T03:11:23.882Z,1010.01
2016-06-05T03:12:23.900Z,1010.01
2016-06-05T03:13:23.934Z,1010.08
2016-06-05T03:14:23.952Z,1010.05
2016-06-05T03:15:23.986Z,1010.08
2016-06-05T03:16:24.052Z,1010.1
2016-06-05T03:17:24.038Z,1010.11
2016-06-05T03:18:24.057Z,1010.08
2016-06-05T03:19:24.074Z,1010.09
2016-06-05T03:20:24.108Z,1010.14
2016-06-05T03:21:24.127Z,1010.11
2016-06-05T03:22:24.160Z,1010.1
2016-06-05T03:23:24.179Z,1010.07
2016-06-05T03:24:24.198Z,1010.1
2016-06-05T03:25:24.232Z,1010.09
2016-06-05T03:27:24.284Z,1010.08
2016-06-05T03:28:24.740Z,1010.13
2016-06-05T03:29:24.321Z,1010.14
2016-06-05T03:30:24.354Z,1010.12
2016-06-05T03:31:24.373Z,1010.15
2016-06-05T03:32:24.407Z,1010.14
2016-06-05T03:33:24.425Z,1010.17
2016-06-05T03:34:24.443Z,1010.16
2016-06-05T03:35:24.478Z,1010.13
2016-06-05T03:36:24.496Z,1010.19
2016-06-05T03:37:24.529Z,1010.21
2016-06-05T03:38:24.548Z,1010.18
2016-06-05T03:39:24.567Z,1010.19
2016-06-05T03:40:24.600Z,1010.22
2016-06-05T03:41:24.619Z,1010.23
2016-06-05T03:43:24.671Z,1010.22
2016-06-05T03:44:24.705Z,1010.21
2016-06-05T03:45:24.722Z,1010.23
2016-06-05T03:46:24.741Z,1010.22
2016-06-05T03:47:24.775Z,1010.23
2016-06-05T03:48:24.794Z,1010.26
2016-06-05T03:49:24.828Z,1010.25
2016-06-05T03:50:24.846Z,1010.28
2016-06-05T03:51:24.864Z,1010.28
2016-06-05T03:52:24.899Z,1010.29
2016-06-05T03:53:24.916Z,1010.29
2016-06-05T03:54:24.950Z,1010.31
2016-06-05T03:55:24.969Z,1010.36
2016-06-05T03:56:25.002Z,1010.35
2016-06-05T03:58:25.039Z,1010.35
2016-06-05T03:59:25.073Z,1010.42
2016-06-05T04:00:25.091Z,1010.39
2016-06-05T04:01:25.126Z,1010.37
2016-06-05T04:02:25.144Z,1010.39
2016-06-05T04:03:25.178Z,1010.39
2016-06-05T04:04:25.196Z,1010.41
2016-06-05T04:05:25.215Z,1010.41
2016-06-05T04:06:25.248Z,1010.43
2016-06-05T04:07:25.267Z,1010.41
2016-06-05T04:08:25.300Z,1010.43
2016-06-05T04:09:25.334Z,1010.43
2016-06-05T04:10:25.353Z,1010.51
2016-06-05T04:11:25.371Z,1010.7
2016-06-05T04:12:25.389Z,1010.8
2016-06-05T04:13:25.501Z,1010.83
2016-06-05T04:14:25.442Z,1010.83
2016-06-05T04:15:25.492Z,1010.83
2016-06-05T04:16:25.494Z,1010.86
2016-06-05T04:17:25.535Z,1010.84
2016-06-05T04:18:25.581Z,1010.76
2016-06-05T04:19:25.642Z,1010.82
2016-06-05T04:20:25.689Z,1010.88
2016-06-05T04:21:25.750Z,1010.9
2016-06-05T04:22:25.791Z,1010.95
2016-06-05T04:23:25.835Z,1010.95
2016-06-05T04:24:25.879Z,1010.96
2016-06-05T04:25:25.908Z,1010.98
2016-06-05T04:26:25.952Z,1010.95
2016-06-05T04:27:25.978Z,1010.99
2016-06-05T04:28:26.017Z,1010.98
2016-06-05T04:30:26.092Z,1011.01
2016-06-05T04:31:26.114Z,1011.01
2016-06-05T04:32:26.151Z,1011.06
2016-06-05T04:33:26.185Z,1011.05
2016-06-05T04:34:26.206Z,1011.09
2016-06-05T04:35:26.240Z,1011.1
2016-06-05T04:36:26.275Z,1011.1
2016-06-05T04:37:26.294Z,1011.09
2016-06-05T04:38:26.329Z,1011.11
2016-06-05T04:39:26.363Z,1011.11
2016-06-05T04:40:26.398Z,1011.14
2016-06-05T04:41:26.416Z,1011.18
2016-06-05T04:42:26.451Z,1011.19
2016-06-05T04:43:26.486Z,1011.17
2016-06-05T04:44:26.520Z,1011.21
2016-06-05T04:46:26.573Z,1011.21
2016-06-05T04:47:26.606Z,1011.25
2016-06-05T04:48:26.641Z,1011.28
2016-06-05T04:49:26.675Z,1011.32
2016-06-05T04:50:26.708Z,1011.33
2016-06-05T04:51:26.742Z,1011.37
2016-06-05T04:52:26.761Z,1011.39
2016-06-05T04:53:26.795Z,1011.39
2016-06-05T04:54:26.828Z,1011.38
2016-06-05T04:55:26.863Z,1011.37
2016-06-05T04:56:26.896Z,1011.32
2016-06-05T04:57:26.931Z,1011.38
2016-06-05T04:58:26.964Z,1011.39
2016-06-05T04:59:26.999Z,1011.39
2016-06-05T05:00:27.032Z,1011.42
2016-06-05T05:02:27.085Z,1011.42
2016-06-05T05:03:27.118Z,1011.41
2016-06-05T05:04:27.152Z,1011.46
2016-06-05T05:05:27.187Z,1011.46
2016-06-05T05:06:27.221Z,1011.5
2016-06-05T05:07:27.254Z,1011.5
2016-06-05T05:08:27.288Z,1011.47
2016-06-05T05:09:27.323Z,1011.55
2016-06-05T05:10:27.357Z,1011.52
2016-06-05T05:11:27.390Z,1011.55
2016-06-05T05:12:27.423Z,1011.52
2016-06-05T05:13:27.974Z,1011.49
2016-06-05T05:14:27.492Z,1011.51
2016-06-05T05:15:27.526Z,1011.53
2016-06-05T05:16:27.559Z,1011.53
2016-06-05T05:18:27.628Z,1011.53
2016-06-05T05:19:27.661Z,1011.52
2016-06-05T05:20:27.695Z,1011.53
2016-06-05T05:21:27.730Z,1011.52
2016-06-05T05:22:27.764Z,1011.5
2016-06-05T05:23:27.798Z,1011.54
2016-06-05T05:24:27.831Z,1011.51
2016-06-05T05:25:27.866Z,1011.5
2016-06-05T05:26:27.915Z,1011.5
2016-06-05T05:27:27.933Z,1011.49
2016-06-05T05:28:28.436Z,1011.46
2016-06-05T05:29:28.016Z,1011.47
2016-06-05T05:30:28.050Z,1011.44
2016-06-05T05:31:28.085Z,1011.43
2016-06-05T05:33:28.152Z,1011.43
2016-06-05T05:34:28.186Z,1011.4
2016-06-05T05:35:28.220Z,1011.35
2016-06-05T05:36:28.254Z,1011.42
2016-06-05T05:37:28.288Z,1011.36
2016-06-05T05:38:28.322Z,1011.39
2016-06-05T05:39:28.371Z,1011.44
2016-06-05T05:40:28.406Z,1011.45
2016-06-05T05:41:28.440Z,1011.46
2016-06-05T05:42:28.474Z,1011.47
2016-06-05T05:43:28.507Z,1011.42
2016-06-05T05:44:28.541Z,1011.43
2016-06-05T05:45:28.576Z,1011.5
2016-06-05T05:46:28.625Z,1011.5
2016-06-05T05:47:28.659Z,1011.5
2016-06-05T05:48:28.692Z,1011.55
2016-06-05T05:49:28.726Z,1011.58
2016-06-05T05:50:28.761Z,1011.57
2016-06-05T05:51:28.795Z,1011.58
2016-06-05T05:52:28.828Z,1011.63
2016-06-05T05:53:28.878Z,1011.62
2016-06-05T05:54:28.912Z,1011.65
2016-06-05T05:55:28.946Z,1011.65
2016-06-05T05:56:28.980Z,1011.66
2016-06-05T05:57:29.014Z,1011.65
2016-06-05T05:58:29.064Z,1011.67
2016-06-05T05:59:29.097Z,1011.63
2016-06-05T06:00:29.131Z,1011.62
2016-06-05T06:01:29.166Z,1011.64
2016-06-05T06:02:29.199Z,1011.69
2016-06-05T06:03:29.233Z,1011.68
2016-06-05T06:05:29.316Z,1011.7
2016-06-05T06:06:29.351Z,1011.71
2016-06-05T06:07:29.384Z,1011.69
2016-06-05T06:08:29.418Z,1011.69
2016-06-05T06:09:29.452Z,1011.73
2016-06-05T06:10:29.501Z,1011.69
2016-06-05T06:11:29.535Z,1011.71
2016-06-05T06:12:29.570Z,1011.74
2016-06-05T06:13:29.604Z,1011.71
2016-06-05T06:14:29.653Z,1011.78
2016-06-05T06:15:29.687Z,1011.82
2016-06-05T06:16:29.721Z,1011.81
2016-06-05T06:17:29.755Z,1011.8
2016-06-05T06:18:29.789Z,1011.83
2016-06-05T06:19:29.823Z,1011.8
2016-06-05T06:21:29.906Z,1011.84
2016-06-05T06:22:29.940Z,1011.89
2016-06-05T06:23:29.974Z,1011.89
2016-06-05T06:24:30.025Z,1011.9
2016-06-05T06:25:30.058Z,1011.92
2016-06-05T06:26:30.091Z,1011.94
2016-06-05T06:27:30.125Z,1011.95
2016-06-05T06:28:30.472Z,1011.96
2016-06-05T06:29:30.208Z,1012.01
2016-06-05T06:30:30.243Z,1012.05
2016-06-05T06:31:30.277Z,1012.03
2016-06-05T06:32:30.327Z,1012.03
2016-06-05T06:33:30.360Z,1012.07
2016-06-05T06:34:30.394Z,1012.05
2016-06-05T06:35:30.429Z,1012.01
2016-06-05T06:37:30.512Z,1012.03
2016-06-05T06:38:30.546Z,1012.08
2016-06-05T06:39:30.580Z,1012.05
2016-06-05T06:40:30.629Z,1012.08
2016-06-05T06:41:30.663Z,1012.07
2016-06-05T06:42:30.698Z,1012.04
2016-06-05T06:43:30.746Z,1012.02
2016-06-05T06:44:30.781Z,1012.05
2016-06-05T06:45:30.815Z,1012.06
2016-06-05T06:46:30.848Z,1012.02
2016-06-05T06:47:30.883Z,1012.05
2016-06-05T06:48:30.932Z,1012.06
2016-06-05T06:49:30.966Z,1012.04
2016-06-05T06:50:31.000Z,1012.06
2016-06-05T06:51:31.050Z,1012.07
2016-06-05T06:53:31.117Z,1012.09
2016-06-05T06:54:31.167Z,1012.12
2016-06-05T06:55:31.200Z,1012.27
2016-06-05T06:56:31.235Z,1012.47
2016-06-05T06:57:31.284Z,1012.57
2016-06-05T06:58:31.616Z,1012.61
2016-06-05T06:59:31.352Z,1012.63
2016-06-05T07:00:31.386Z,1012.62
2016-06-05T07:01:31.436Z,1012.66
2016-06-05T07:02:31.469Z,1012.71
2016-06-05T07:03:31.504Z,1012.81
2016-06-05T07:04:31.553Z,1012.87
2016-06-05T07:05:31.588Z,1012.83
2016-06-05T07:06:31.622Z,1012.83
2016-06-05T07:08:31.705Z,1012.83
2016-06-05T07:09:31.739Z,1012.86
2016-06-05T07:10:31.773Z,1012.88
2016-06-05T07:11:31.821Z,1012.96
2016-06-05T07:12:31.856Z,1012.93
2016-06-05T07:13:31.907Z,1013.01
2016-06-05T07:14:31.924Z,1012.98
2016-06-05T07:15:31.974Z,1013.1
2016-06-05T07:16:32.007Z,1013.17
2016-06-05T07:17:32.041Z,1013.15
2016-06-05T07:18:32.091Z,1013.24
2016-06-05T07:19:32.126Z,1013.27
2016-06-05T07:20:32.159Z,1013.3
2016-06-05T07:21:32.208Z,1013.28
2016-06-05T07:22:32.242Z,1013.29
2016-06-05T07:23:32.276Z,1013.33
2016-06-05T07:24:32.326Z,1013.37
2016-06-05T07:25:32.359Z,1013.38
2016-06-05T07:26:32.394Z,1013.4
2016-06-05T07:27:32.428Z,1013.39
2016-06-05T07:28:32.478Z,1013.47
2016-06-05T07:29:32.511Z,1013.5
2016-06-05T07:30:32.561Z,1013.43
2016-06-05T07:31:32.595Z,1013.4
2016-06-05T07:32:32.628Z,1013.4
2016-06-05T07:33:32.663Z,1013.45
2016-06-05T07:34:32.713Z,1013.42
2016-06-05T07:35:32.746Z,1013.41
2016-06-05T07:36:32.780Z,1013.3
2016-06-05T07:37:32.829Z,1013.32
2016-06-05T07:38:32.864Z,1013.26
2016-06-05T07:40:32.947Z,1013.14
2016-06-05T07:41:32.981Z,1013.09
2016-06-05T07:42:33.015Z,1013.07
2016-06-05T07:43:33.049Z,1012.98
2016-06-05T07:44:33.098Z,1012.88
2016-06-05T07:45:33.132Z,1012.87
2016-06-05T07:46:33.182Z,1012.79
2016-06-05T07:47:33.216Z,1012.69
2016-06-05T07:48:33.250Z,1012.66
2016-06-05T07:49:33.284Z,1012.61
2016-06-05T07:50:33.334Z,1012.58
2016-06-05T07:51:33.367Z,1012.32
2016-06-05T07:52:33.401Z,1012.12
2016-06-05T07:53:33.451Z,1012.08
2016-06-05T07:54:33.484Z,1012.09
2016-06-05T07:56:33.568Z,1012.11
2016-06-05T07:57:33.961Z,1012.12
2016-06-05T07:58:33.918Z,1012.18
2016-06-05T07:59:33.686Z,1012.16
2016-06-05T08:00:33.735Z,1012.2
2016-06-05T08:01:33.754Z,1012.19
2016-06-05T08:02:33.803Z,1012.19
2016-06-05T08:03:33.836Z,1012.14
2016-06-05T08:04:33.871Z,1012.14
2016-06-05T08:05:33.921Z,1012.15
2016-06-05T08:06:33.955Z,1012.15
2016-06-05T08:07:33.988Z,1012.17
2016-06-05T08:08:34.038Z,1012.18
2016-06-05T08:09:34.072Z,1012.15
2016-06-05T08:10:34.105Z,1012.12
2016-06-05T08:12:34.190Z,1012.12
2016-06-05T08:13:34.224Z,1012.1
2016-06-05T08:14:34.257Z,1012.16
2016-06-05T08:15:34.306Z,1012.23
2016-06-05T08:16:34.340Z,1012.25
2016-06-05T08:17:34.374Z,1012.26
2016-06-05T08:18:34.424Z,1012.21
2016-06-05T08:19:34.458Z,1012.2
2016-06-05T08:20:34.492Z,1012.23
2016-06-05T08:21:34.542Z,1012.17
2016-06-05T08:22:34.575Z,1012.19
2016-06-05T08:23:34.610Z,1012.14
2016-06-05T08:24:34.643Z,1012.12
2016-06-05T08:25:34.693Z,1012.09
2016-06-05T08:26:34.727Z,1012.12
2016-06-05T08:28:35.545Z,1012.17
2016-06-05T08:29:34.845Z,1012.24
2016-06-05T08:30:34.878Z,1012.3
2016-06-05T08:31:34.912Z,1012.36
2016-06-05T08:32:34.962Z,1012.42
2016-06-05T08:33:34.997Z,1012.47
2016-06-05T08:34:35.030Z,1012.46
2016-06-05T08:35:35.064Z,1012.46
2016-06-05T08:36:35.113Z,1012.4
2016-06-05T08:37:35.147Z,1012.36
2016-06-05T08:38:35.180Z,1012.37
2016-06-05T08:39:35.215Z,1012.34
2016-06-05T08:40:35.265Z,1012.37
2016-06-05T08:41:35.299Z,1012.31
2016-06-05T08:43:35.554Z,1012.31
2016-06-05T08:44:35.401Z,1012.34
2016-06-05T08:45:35.450Z,1012.31
2016-06-05T08:46:35.484Z,1012.29
2016-06-05T08:47:35.518Z,1012.26
2016-06-05T08:48:35.552Z,1012.23
2016-06-05T08:49:35.601Z,1012.22
2016-06-05T08:50:35.635Z,1012.18
2016-06-05T08:51:35.670Z,1012.18
2016-06-05T08:52:35.703Z,1012.14
2016-06-05T08:53:35.753Z,1012.09
2016-06-05T08:54:35.786Z,1011.96
2016-06-05T08:55:35.820Z,1011.9
2016-06-05T08:56:35.854Z,1011.93
2016-06-05T08:57:35.889Z,1011.88
2016-06-05T08:58:35.938Z,1011.88
2016-06-05T08:59:35.972Z,1011.87
2016-06-05T09:00:36.006Z,1011.85
2016-06-05T09:01:36.040Z,1011.83
2016-06-05T09:02:36.089Z,1011.85
2016-06-05T09:03:36.123Z,1011.84
2016-06-05T09:04:36.158Z,1011.8
2016-06-05T09:05:36.192Z,1011.83
2016-06-05T09:06:36.225Z,1011.84
2016-06-05T09:07:36.275Z,1011.79
2016-06-05T09:08:36.309Z,1011.77
2016-06-05T09:09:36.343Z,1011.79
2016-06-05T09:10:36.377Z,1011.82
2016-06-05T09:11:36.410Z,1011.8
2016-06-05T09:12:36.460Z,1011.82
2016-06-05T09:13:37.307Z,1011.77
2016-06-05T09:15:36.577Z,1011.8
2016-06-05T09:16:36.596Z,1011.77
2016-06-05T09:17:36.646Z,1011.77
2016-06-05T09:18:36.679Z,1011.77
2016-06-05T09:19:36.713Z,1011.83
2016-06-05T09:20:36.748Z,1011.81
2016-06-05T09:21:36.782Z,1011.79
2016-06-05T09:22:36.815Z,1011.81
2016-06-05T09:23:36.864Z,1011.83
2016-06-05T09:24:36.898Z,1011.8
2016-06-05T09:25:36.933Z,1011.83
2016-06-05T09:26:36.967Z,1011.8
2016-06-05T09:27:37.781Z,1011.83
2016-06-05T09:28:37.034Z,1011.8
2016-06-05T09:29:37.084Z,1011.83
2016-06-05T09:31:37.152Z,1011.87
2016-06-05T09:32:37.186Z,1011.85
2016-06-05T09:33:37.220Z,1011.83
2016-06-05T09:34:37.270Z,1011.86
2016-06-05T09:35:37.303Z,1011.84
2016-06-05T09:36:37.336Z,1011.84
2016-06-05T09:37:37.371Z,1011.82
2016-06-05T09:38:37.405Z,1011.81
2016-06-05T09:39:37.439Z,1011.8
2016-06-05T09:40:37.488Z,1011.82
2016-06-05T09:41:37.523Z,1011.81
2016-06-05T09:42:37.557Z,1011.81
2016-06-05T09:43:37.590Z,1011.77
2016-06-05T09:44:37.624Z,1011.79
2016-06-05T09:45:37.658Z,1011.78
2016-06-05T09:47:37.741Z,1011.75
2016-06-05T09:48:37.776Z,1011.78
2016-06-05T09:49:37.810Z,1011.77
2016-06-05T09:50:37.844Z,1011.74
2016-06-05T09:51:37.893Z,1011.7
2016-06-05T09:52:37.927Z,1011.81
2016-06-05T09:53:37.961Z,1011.81
2016-06-05T09:54:37.995Z,1011.8
2016-06-05T09:55:38.029Z,1011.81
2016-06-05T09:56:38.063Z,1011.78
2016-06-05T09:57:38.097Z,1011.73
2016-06-05T09:58:38.350Z,1011.75
2016-06-05T09:59:38.181Z,1011.74
2016-06-05T10:00:38.215Z,1011.73
2016-06-05T10:01:38.248Z,1011.76
2016-06-05T10:03:38.316Z,1011.67
2016-06-05T10:04:38.350Z,1011.66
2016-06-05T10:05:38.383Z,1011.62
2016-06-05T10:06:38.434Z,1011.62
2016-06-05T10:07:38.467Z,1011.61
2016-06-05T10:08:38.502Z,1011.62
2016-06-05T10:09:38.535Z,1011.66
2016-06-05T10:10:38.569Z,1011.63
2016-06-05T10:11:38.603Z,1011.67
2016-06-05T10:12:39.341Z,1011.63
2016-06-05T10:13:38.671Z,1011.59
2016-06-05T10:14:38.720Z,1011.64
2016-06-05T10:15:38.754Z,1011.66
2016-06-05T10:16:38.788Z,1011.64
2016-06-05T10:18:38.871Z,1011.69
2016-06-05T10:19:38.890Z,1011.7
2016-06-05T10:20:38.924Z,1011.72
2016-06-05T10:21:38.957Z,1011.72
2016-06-05T10:22:39.007Z,1011.74
2016-06-05T10:23:39.042Z,1011.72
2016-06-05T10:24:39.076Z,1011.76
2016-06-05T10:25:39.110Z,1011.76
2016-06-05T10:26:39.143Z,1011.69
2016-06-05T10:27:40.130Z,1011.66
2016-06-05T10:28:39.227Z,1011.66
2016-06-05T10:29:39.246Z,1011.67
2016-06-05T10:30:39.279Z,1011.61
2016-06-05T10:31:39.313Z,1011.63
2016-06-05T10:32:39.347Z,1011.61
2016-06-05T10:33:39.381Z,1011.62
2016-06-05T10:34:39.415Z,1011.6
2016-06-05T10:35:39.449Z,1011.59
2016-06-05T10:36:39.483Z,1011.57
2016-06-05T10:37:39.517Z,1011.57
2016-06-05T10:38:39.566Z,1011.55
2016-06-05T10:39:39.600Z,1011.61
2016-06-05T10:40:39.634Z,1011.57
2016-06-05T10:41:39.668Z,1011.54
2016-06-05T10:42:39.702Z,1011.58
2016-06-05T10:43:40.361Z,1011.58
2016-06-05T10:44:39.769Z,1011.58
2016-06-05T10:45:39.805Z,1011.56
2016-06-05T10:46:39.838Z,1011.61
2016-06-05T10:47:39.871Z,1011.57
2016-06-05T10:48:39.905Z,1011.57
2016-06-05T10:50:39.974Z,1011.59
2016-06-05T10:51:40.007Z,1011.56
2016-06-05T10:52:40.041Z,1011.57
2016-06-05T10:53:40.075Z,1011.55
2016-06-05T10:54:40.110Z,1011.56
2016-06-05T10:55:40.143Z,1011.53
2016-06-05T10:56:40.177Z,1011.5
2016-06-05T10:57:40.211Z,1011.5
2016-06-05T10:58:40.245Z,1011.5
2016-06-05T10:59:40.264Z,1011.49
2016-06-05T11:00:40.312Z,1011.52
2016-06-05T11:01:40.331Z,1011.49
2016-06-05T11:02:40.365Z,1011.48
2016-06-05T11:03:40.400Z,1011.52
2016-06-05T11:04:40.434Z,1011.55
2016-06-05T11:06:40.500Z,1011.54
2016-06-05T11:07:40.535Z,1011.55
2016-06-05T11:08:40.569Z,1011.57
2016-06-05T11:09:40.603Z,1011.56
2016-06-05T11:10:40.637Z,1011.57
2016-06-05T11:11:40.671Z,1011.6
2016-06-05T11:12:41.658Z,1011.63
2016-06-05T11:13:40.739Z,1011.65
2016-06-05T11:14:40.773Z,1011.61
2016-06-05T11:15:40.806Z,1011.59
2016-06-05T11:16:40.824Z,1011.61
2016-06-05T11:17:40.874Z,1011.62
2016-06-05T11:18:40.908Z,1011.6
2016-06-05T11:19:40.927Z,1011.62
2016-06-05T11:20:40.960Z,1011.58
2016-06-05T11:22:41.028Z,1011.55
2016-06-05T11:23:41.062Z,1011.53
2016-06-05T11:24:41.096Z,1011.52
2016-06-05T11:25:41.115Z,1011.54
2016-06-05T11:26:41.149Z,1011.5
2016-06-05T11:27:41.183Z,1011.47
2016-06-05T11:28:41.217Z,1011.52
2016-06-05T11:29:41.251Z,1011.49
2016-06-05T11:30:41.284Z,1011.52
2016-06-05T11:31:41.303Z,1011.49
2016-06-05T11:32:41.337Z,1011.51
2016-06-05T11:33:41.370Z,1011.52
2016-06-05T11:34:41.404Z,1011.53
2016-06-05T11:35:41.439Z,1011.55
2016-06-05T11:36:41.472Z,1011.57
2016-06-05T11:38:41.525Z,1011.55
2016-06-05T11:39:41.559Z,1011.55
2016-06-05T11:40:41.592Z,1011.53
2016-06-05T11:41:41.627Z,1011.56
2016-06-05T11:42:41.644Z,1011.52
2016-06-05T11:43:41.678Z,1011.52
2016-06-05T11:44:41.713Z,1011.52
2016-06-05T11:45:41.763Z,1011.52
2016-06-05T11:46:41.780Z,1011.52
2016-06-05T11:47:41.799Z,1011.53
2016-06-05T11:48:41.833Z,1011.54
2016-06-05T11:49:41.866Z,1011.55
2016-06-05T11:50:41.901Z,1011.55
2016-06-05T11:51:41.934Z,1011.54
2016-06-05T11:53:41.988Z,1011.53
2016-06-05T11:54:42.037Z,1011.54
2016-06-05T11:55:42.054Z,1011.57
2016-06-05T11:56:42.088Z,1011.5
2016-06-05T11:57:42.123Z,1011.53
2016-06-05T11:58:42.140Z,1011.5
2016-06-05T11:59:42.175Z,1011.47
2016-06-05T12:00:42.209Z,1011.51
2016-06-05T12:01:42.242Z,1011.44
2016-06-05T12:02:42.276Z,1011.44
2016-06-05T12:03:42.311Z,1011.4
2016-06-05T12:04:42.328Z,1011.39
2016-06-05T12:05:42.379Z,1011.42
2016-06-05T12:06:42.398Z,1011.41
2016-06-05T12:07:42.430Z,1011.43
2016-06-05T12:08:42.465Z,1011.43
2016-06-05T12:09:42.499Z,1011.4
2016-06-05T12:10:42.517Z,1011.38
2016-06-05T12:11:42.567Z,1011.38
2016-06-05T12:12:42.586Z,1011.37
2016-06-05T12:13:42.634Z,1011.36
2016-06-05T12:14:42.652Z,1011.37
2016-06-05T12:15:42.687Z,1011.4
2016-06-05T12:16:42.721Z,1011.43
2016-06-05T12:17:42.754Z,1011.4
2016-06-05T12:18:42.773Z,1011.4
2016-06-05T12:19:42.807Z,1011.43
2016-06-05T12:20:42.841Z,1011.41
2016-06-05T12:21:42.922Z,1011.38
2016-06-05T12:22:42.908Z,1011.39
2016-06-05T12:23:42.943Z,1011.4
2016-06-05T12:25:42.996Z,1011.38
2016-06-05T12:26:43.028Z,1011.41
2016-06-05T12:27:43.843Z,1011.38
2016-06-05T12:28:43.299Z,1011.36
2016-06-05T12:29:43.131Z,1011.36
2016-06-05T12:30:43.164Z,1011.35
2016-06-05T12:31:43.198Z,1011.34
2016-06-05T12:32:43.217Z,1011.29
2016-06-05T12:33:43.267Z,1011.31
2016-06-05T12:34:43.285Z,1011.27
2016-06-05T12:35:43.318Z,1011.23
2016-06-05T12:36:43.352Z,1011.2
2016-06-05T12:37:43.387Z,1011.21
2016-06-05T12:38:43.420Z,1011.17
2016-06-05T12:39:43.454Z,1011.19
2016-06-05T12:41:43.507Z,1011.14
2016-06-05T12:42:43.541Z,1011.14
2016-06-05T12:43:43.637Z,1011.15
2016-06-05T12:44:43.609Z,1011.19
2016-06-05T12:45:43.658Z,1011.16
2016-06-05T12:46:43.677Z,1011.19
2016-06-05T12:47:43.710Z,1011.25
2016-06-05T12:48:43.744Z,1011.23
2016-06-05T12:49:43.763Z,1011.26